createdAt,value
2022-08-23T00:00:57.699Z,10.25
2022-08-23T00:07:01.695Z,10.57
2022-08-23T00:13:05.760Z,7.15
2022-08-23T00:19:09.385Z,10.32
2022-08-23T00:25:13.816Z,5.35
2022-08-23T00:31:19.542Z,6.22
2022-08-23T00:37:22.036Z,10.57
2022-08-23T00:43:59.844Z,7.65
2022-08-23T00:50:30.058Z,7.22
2022-08-23T00:56:34.550Z,7.63
2022-08-23T01:02:37.399Z,5.32
2022-08-23T01:08:43.788Z,7.78
2022-08-23T01:14:57.508Z,6.53
2022-08-23T01:21:10.711Z,6.13
2022-08-23T01:27:14.045Z,5.18
2022-08-23T01:33:16.580Z,4.80
2022-08-23T01:39:18.484Z,4.53
2022-08-23T01:45:20.202Z,12.48
2022-08-23T01:51:24.040Z,5.43
2022-08-23T01:57:25.803Z,5.63
2022-08-23T02:03:29.264Z,5.80
2022-08-23T02:09:32.064Z,5.28
2022-08-23T02:15:33.967Z,5.90
2022-08-23T02:21:37.446Z,6.05
2022-08-23T02:27:39.217Z,6.25
2022-08-23T02:33:45.973Z,4.47
2022-08-23T02:39:48.932Z,5.38
2022-08-23T02:45:51.901Z,4.88
2022-08-23T02:51:53.995Z,5.30
2022-08-23T02:57:56.159Z,6.55
2022-08-23T03:04:01.900Z,5.72
2022-08-23T03:10:06.038Z,6.53
2022-08-23T03:16:09.264Z,4.72
2022-08-23T03:22:11.071Z,4.47
2022-08-23T03:28:12.971Z,3.85
2022-08-23T03:34:14.729Z,5.72
2022-08-23T03:40:16.899Z,3.53
2022-08-23T03:46:25.301Z,5.35
2022-08-23T03:52:27.101Z,4.55
2022-08-23T03:58:29.814Z,8.35
2022-08-23T04:04:31.610Z,4.95
2022-08-23T04:10:33.395Z,3.20
2022-08-23T04:16:37.906Z,5.57
2022-08-23T04:22:39.712Z,6.72
2022-08-23T04:28:41.516Z,21.02
2022-08-23T04:34:45.554Z,6.97
2022-08-23T04:41:12.772Z,15.07
2022-08-23T04:47:14.541Z,15.80
2022-08-23T04:53:16.538Z,10.77
2022-08-23T04:59:18.259Z,17.33
2022-08-23T05:05:20.936Z,12.88
2022-08-23T05:11:22.846Z,20.50
2022-08-23T05:17:24.674Z,19.80
2022-08-23T05:23:31.988Z,22.05
2022-08-23T05:29:34.192Z,20.00
2022-08-23T05:35:35.901Z,26.95
2022-08-23T05:41:38.669Z,16.00
2022-08-23T05:47:40.532Z,11.20
2022-08-23T05:53:43.374Z,21.40
2022-08-23T05:59:45.169Z,12.52
2022-08-23T06:05:46.877Z,16.92
2022-08-23T06:11:48.765Z,20.70
2022-08-23T06:17:51.277Z,18.65
2022-08-23T06:23:53.436Z,17.13
2022-08-23T06:29:55.144Z,18.17
2022-08-23T06:36:06.547Z,25.25
2022-08-23T06:42:34.841Z,12.25
2022-08-23T06:48:33.248Z,16.33
2022-08-23T06:54:35.787Z,13.57
2022-08-23T07:00:38.267Z,13.73
2022-08-23T07:06:40.977Z,8.18
2022-08-23T07:12:43.670Z,13.45
2022-08-23T07:18:47.050Z,17.25
2022-08-23T07:24:51.464Z,18.92
2022-08-23T07:30:53.296Z,15.43
2022-08-23T07:36:55.356Z,15.48
2022-08-23T07:42:57.778Z,30.85
2022-08-23T07:49:01.506Z,23.15
2022-08-23T07:55:03.325Z,26.65
2022-08-23T08:01:17.853Z,27.92
2022-08-23T08:07:21.646Z,42.28
2022-08-23T08:13:23.492Z,46.72
2022-08-23T08:19:26.558Z,52.35
2022-08-23T08:25:30.409Z,29.52
2022-08-23T08:31:32.415Z,32.92
2022-08-23T08:37:34.351Z,38.58
2022-08-23T08:44:17.958Z,35.15
2022-08-23T08:50:24.285Z,42.10
2022-08-23T08:56:33.580Z,22.50
2022-08-23T09:02:35.800Z,29.55
2022-08-23T09:08:56.849Z,28.60
2022-08-23T09:15:06.426Z,17.13
2022-08-23T09:21:09.664Z,28.73
2022-08-23T09:27:11.795Z,25.55
2022-08-23T09:33:38.343Z,38.92
2022-08-23T09:39:43.167Z,31.75
2022-08-23T09:45:50.612Z,39.03
2022-08-23T09:51:55.915Z,27.80
2022-08-23T09:58:00.236Z,48.42
2022-08-23T10:04:08.659Z,33.80
2022-08-23T10:10:23.957Z,55.70
2022-08-23T10:16:34.420Z,41.60
2022-08-23T10:23:13.584Z,40.15
2022-08-23T10:29:37.461Z,44.05
2022-08-23T10:35:43.548Z,55.67
2022-08-23T10:42:21.355Z,42.78
2022-08-23T10:48:28.883Z,87.22
2022-08-23T10:54:46.097Z,73.53
2022-08-23T11:00:48.209Z,74.80
2022-08-23T11:06:53.281Z,53.58
2022-08-23T11:13:00.022Z,67.03
2022-08-23T11:19:01.721Z,54.53
2022-08-23T11:25:26.017Z,73.55
2022-08-23T11:31:33.401Z,65.95
2022-08-23T11:37:57.268Z,74.22
2022-08-23T11:44:04.877Z,59.55
2022-08-23T11:50:09.688Z,60.38
2022-08-23T11:56:20.432Z,63.97
2022-08-23T12:02:53.191Z,90.53
2022-08-23T12:09:06.349Z,57.05
2022-08-23T12:15:11.970Z,70.07
2022-08-23T12:21:22.416Z,53.40
2022-08-23T12:27:57.399Z,57.60
2022-08-23T12:34:07.158Z,61.63
2022-08-23T12:40:23.089Z,46.33
2022-08-23T12:46:46.761Z,50.47
2022-08-23T12:53:01.343Z,42.33
2022-08-23T12:59:09.244Z,40.80
2022-08-23T13:05:23.194Z,55.67
2022-08-23T13:11:28.080Z,42.60
2022-08-23T13:17:37.014Z,57.22
2022-08-23T13:23:41.231Z,49.33
2022-08-23T13:29:50.106Z,35.25
2022-08-23T13:36:05.806Z,48.25
2022-08-23T13:42:24.920Z,87.13
2022-08-23T13:48:33.876Z,88.72
2022-08-23T13:54:37.563Z,81.40
2022-08-23T14:00:39.747Z,49.58
2022-08-23T14:06:48.961Z,61.30
2022-08-23T14:12:53.715Z,66.50
2022-08-23T14:25:18.019Z,58.78
2022-08-23T14:31:20.525Z,77.88
2022-08-23T14:38:02.802Z,51.90
2022-08-23T14:43:44.081Z,73.18
2022-08-23T14:49:45.910Z,56.05
2022-08-23T14:56:01.117Z,71.30
2022-08-23T15:02:15.499Z,71.95
2022-08-23T15:08:17.757Z,66.25
2022-08-23T15:14:19.530Z,62.55
2022-08-23T15:20:32.918Z,65.05
2022-08-23T15:26:35.320Z,60.60
2022-08-23T15:32:37.513Z,61.60
2022-08-23T15:38:40.203Z,67.43
2022-08-23T15:44:41.955Z,86.18
2022-08-23T15:50:46.683Z,114.30
2022-08-23T15:56:50.434Z,123.20
2022-08-23T16:03:20.264Z,87.22
2022-08-23T16:09:21.297Z,87.70
2022-08-23T16:15:23.053Z,77.72
2022-08-23T16:21:27.173Z,79.65
2022-08-23T16:27:28.900Z,74.75
2022-08-23T16:33:30.677Z,72.13
2022-08-23T16:39:34.836Z,73.03
2022-08-23T16:45:37.571Z,68.65
2022-08-23T16:51:39.476Z,80.57
2022-08-23T16:57:41.967Z,68.32
2022-08-23T17:03:43.734Z,82.45
2022-08-23T17:09:46.733Z,84.10
2022-08-23T17:15:48.478Z,70.30
2022-08-23T17:21:50.242Z,68.65
2022-08-23T17:27:53.738Z,84.18
2022-08-23T17:33:56.807Z,77.32
2022-08-23T17:39:58.543Z,68.72
2022-08-23T17:46:00.306Z,85.70
2022-08-23T17:52:02.240Z,86.47
2022-08-23T17:58:05.305Z,91.72
2022-08-23T18:04:07.407Z,77.78
2022-08-23T18:10:12.416Z,70.10
2022-08-23T18:16:14.646Z,89.88
2022-08-23T18:22:16.443Z,74.90
2022-08-23T18:28:18.238Z,66.72
2022-08-23T18:34:20.650Z,79.20
2022-08-23T18:40:22.496Z,62.40
2022-08-23T18:46:24.524Z,57.97
2022-08-23T18:52:29.258Z,61.97
2022-08-23T18:58:33.413Z,54.97
2022-08-23T19:04:35.101Z,59.17
2022-08-23T19:10:37.012Z,49.40
2022-08-23T19:16:41.814Z,45.53
2022-08-23T19:22:47.257Z,52.50
2022-08-23T19:28:49.164Z,40.92
2022-08-23T19:34:51.229Z,48.05
2022-08-23T19:40:52.988Z,71.05
2022-08-23T19:46:57.710Z,44.47
2022-08-23T19:52:59.559Z,42.05
2022-08-23T19:59:05.083Z,38.60
2022-08-23T20:05:08.368Z,45.22
2022-08-23T20:11:10.414Z,52.83
2022-08-23T20:17:12.208Z,59.75
2022-08-23T20:23:32.358Z,46.22
2022-08-23T20:29:34.611Z,32.63
2022-08-23T20:35:36.514Z,36.50
2022-08-23T20:41:39.696Z,33.97
2022-08-23T20:47:41.504Z,42.80
2022-08-23T20:53:43.570Z,40.33
2022-08-23T20:59:45.504Z,41.05
2022-08-23T21:05:47.363Z,39.28
2022-08-23T21:11:50.217Z,35.60
2022-08-23T21:17:52.118Z,36.25
2022-08-23T21:23:54.836Z,36.72
2022-08-23T21:29:56.828Z,35.58
2022-08-23T21:35:58.539Z,36.03
2022-08-23T21:42:00.663Z,30.70
2022-08-23T21:48:02.403Z,38.63
2022-08-23T21:54:05.719Z,38.67
2022-08-23T22:00:10.564Z,36.80
2022-08-23T22:06:14.403Z,35.85
2022-08-23T22:12:16.125Z,35.70
2022-08-23T22:18:17.897Z,42.70
2022-08-23T22:24:25.182Z,27.70
2022-08-23T22:30:27.555Z,21.63
2022-08-23T22:36:33.294Z,31.85
2022-08-23T22:42:36.036Z,33.05
2022-08-23T22:48:38.157Z,24.35
2022-08-23T22:54:39.915Z,27.98
2022-08-23T23:00:43.459Z,16.15
2022-08-23T23:06:45.436Z,25.35
2022-08-23T23:12:47.134Z,20.77
2022-08-23T23:19:08.167Z,17.25
2022-08-23T23:25:09.986Z,15.27
2022-08-23T23:31:11.785Z,16.55
2022-08-23T23:37:13.618Z,17.38
2022-08-23T23:43:15.429Z,11.88
2022-08-23T23:49:17.270Z,12.35
2022-08-23T23:55:34.686Z,13.35
